sensor_id;sensor_type;location;lat;lon;timestamp;pressure;altitude;pressure_sealevel;temperature;humidity
51229;BME280;37304;52.216;6.874;2023-03-16T00:03:00;101563.47;;;1.80;100.00
51229;BME280;37304;52.216;6.874;2023-03-16T00:08:00;101563.44;;;1.79;100.00
51229;BME280;37304;52.216;6.874;2023-03-16T00:13:01;101556.69;;;1.81;100.00
51229;BME280;37304;52.216;6.874;2023-03-16T00:18:02;101555.84;;;1.82;100.00
51229;BME280;37304;52.216;6.874;2023-03-16T00:23:02;101543.88;;;1.81;100.00
51229;BME280;37304;52.216;6.874;2023-03-16T00:28:02;101535.44;;;1.85;100.00
51229;BME280;37304;52.216;6.874;2023-03-16T00:33:03;101535.47;;;1.86;100.00
51229;BME280;37304;52.216;6.874;2023-03-16T00:38:04;101556.13;;;1.91;100.00
51229;BME280;37304;52.216;6.874;2023-03-16T00:43:04;101557.00;;;1.92;100.00
51229;BME280;37304;52.216;6.874;2023-03-16T00:48:05;101563.09;;;1.95;100.00
51229;BME280;37304;52.216;6.874;2023-03-16T00:53:05;101563.09;;;1.95;100.00
51229;BME280;37304;52.216;6.874;2023-03-16T00:58:05;101554.59;;;1.96;100.00
51229;BME280;37304;52.216;6.874;2023-03-16T01:03:06;101555.56;;;2.00;100.00
51229;BME280;37304;52.216;6.874;2023-03-16T01:08:07;101546.16;;;2.00;100.00
51229;BME280;37304;52.216;6.874;2023-03-16T01:13:08;101530.00;;;2.03;100.00
51229;BME280;37304;52.216;6.874;2023-03-16T01:18:08;101520.75;;;2.08;100.00
51229;BME280;37304;52.216;6.874;2023-03-16T01:23:08;101505.47;;;2.11;100.00
51229;BME280;37304;52.216;6.874;2023-03-16T01:28:09;101510.69;;;2.14;100.00
51229;BME280;37304;52.216;6.874;2023-03-16T01:33:09;101496.31;;;2.21;100.00
51229;BME280;37304;52.216;6.874;2023-03-16T01:38:09;101497.16;;;2.20;100.00
51229;BME280;37304;52.216;6.874;2023-03-16T01:43:10;101500.69;;;2.24;100.00
51229;BME280;37304;52.216;6.874;2023-03-16T01:48:10;101490.44;;;2.25;100.00
51229;BME280;37304;52.216;6.874;2023-03-16T01:53:11;101482.75;;;2.25;100.00
51229;BME280;37304;52.216;6.874;2023-03-16T01:58:11;101481.94;;;2.26;100.00
51229;BME280;37304;52.216;6.874;2023-03-16T02:03:15;101487.97;;;2.28;100.00
51229;BME280;37304;52.216;6.874;2023-03-16T02:08:18;101482.91;;;2.30;100.00
51229;BME280;37304;52.216;6.874;2023-03-16T02:13:21;101472.63;;;2.30;100.00
51229;BME280;37304;52.216;6.874;2023-03-16T02:18:22;101460.66;;;2.30;100.00
51229;BME280;37304;52.216;6.874;2023-03-16T02:23:24;101458.09;;;2.30;100.00
51229;BME280;37304;52.216;6.874;2023-03-16T02:34:00;101439.31;;;2.31;100.00
51229;BME280;37304;52.216;6.874;2023-03-16T02:39:01;101438.47;;;2.31;100.00
51229;BME280;37304;52.216;6.874;2023-03-16T02:44:10;101429.06;;;2.31;100.00
51229;BME280;37304;52.216;6.874;2023-03-16T02:49:29;101425.69;;;2.32;100.00
51229;BME280;37304;52.216;6.874;2023-03-16T02:54:31;101418.91;;;2.35;100.00
51229;BME280;37304;52.216;6.874;2023-03-16T02:59:32;101417.16;;;2.33;100.00
51229;BME280;37304;52.216;6.874;2023-03-16T03:04:32;101416.34;;;2.35;100.00
51229;BME280;37304;52.216;6.874;2023-03-16T03:09:33;101397.56;;;2.36;100.00
51229;BME280;37304;52.216;6.874;2023-03-16T03:14:33;101401.88;;;2.38;100.00
51229;BME280;37304;52.216;6.874;2023-03-16T03:19:37;101398.47;;;2.38;100.00
51229;BME280;37304;52.216;6.874;2023-03-16T03:24:38;101401.06;;;2.39;100.00
51229;BME280;37304;52.216;6.874;2023-03-16T03:29:38;101400.19;;;2.39;100.00
51229;BME280;37304;52.216;6.874;2023-03-16T03:34:38;101393.50;;;2.44;100.00
51229;BME280;37304;52.216;6.874;2023-03-16T03:39:39;101394.31;;;2.43;100.00
51229;BME280;37304;52.216;6.874;2023-03-16T03:44:39;101390.94;;;2.45;100.00
51229;BME280;37304;52.216;6.874;2023-03-16T03:49:40;101380.84;;;2.52;100.00
51229;BME280;37304;52.216;6.874;2023-03-16T03:54:40;101375.78;;;2.55;100.00
51229;BME280;37304;52.216;6.874;2023-03-16T03:59:40;101374.94;;;2.56;100.00
51229;BME280;37304;52.216;6.874;2023-03-16T04:04:44;101369.03;;;2.58;100.00
51229;BME280;37304;52.216;6.874;2023-03-16T04:09:44;101357.94;;;2.59;100.00
51229;BME280;37304;52.216;6.874;2023-03-16T04:14:44;101349.38;;;2.59;100.00
51229;BME280;37304;52.216;6.874;2023-03-16T04:19:45;101347.75;;;2.62;100.00
51229;BME280;37304;52.216;6.874;2023-03-16T04:24:45;101338.44;;;2.66;100.00
51229;BME280;37304;52.216;6.874;2023-03-16T04:29:45;101341.84;;;2.65;100.00
51229;BME280;37304;52.216;6.874;2023-03-16T04:34:46;101341.84;;;2.65;100.00
51229;BME280;37304;52.216;6.874;2023-03-16T04:39:47;101344.41;;;2.65;100.00
51229;BME280;37304;52.216;6.874;2023-03-16T04:44:47;101335.84;;;2.65;100.00
51229;BME280;37304;52.216;6.874;2023-03-16T04:49:48;101339.31;;;2.67;100.00
51229;BME280;37304;52.216;6.874;2023-03-16T04:54:48;101344.38;;;2.64;100.00
51229;BME280;37304;52.216;6.874;2023-03-16T04:59:48;101340.97;;;2.65;100.00
51229;BME280;37304;52.216;6.874;2023-03-16T05:04:49;101341.88;;;2.67;100.00
51229;BME280;37304;52.216;6.874;2023-03-16T05:09:49;101335.78;;;2.63;100.00
51229;BME280;37304;52.216;6.874;2023-03-16T05:14:49;101335.75;;;2.61;100.00
51229;BME280;37304;52.216;6.874;2023-03-16T05:19:50;101323.72;;;2.59;100.00
51229;BME280;37304;52.216;6.874;2023-03-16T05:24:50;101325.38;;;2.57;100.00
51229;BME280;37304;52.216;6.874;2023-03-16T05:29:51;101315.00;;;2.52;100.00
51229;BME280;37304;52.216;6.874;2023-03-16T05:34:51;101316.69;;;2.52;100.00
51229;BME280;37304;52.216;6.874;2023-03-16T05:39:52;101314.09;;;2.50;100.00
51229;BME280;37304;52.216;6.874;2023-03-16T05:44:52;101318.44;;;2.53;100.00
51229;BME280;37304;52.216;6.874;2023-03-16T05:49:53;101331.34;;;2.56;100.00
51229;BME280;37304;52.216;6.874;2023-03-16T05:54:53;101330.50;;;2.57;100.00
51229;BME280;37304;52.216;6.874;2023-03-16T05:59:54;101330.47;;;2.55;100.00
51229;BME280;37304;52.216;6.874;2023-03-16T06:04:54;101313.44;;;2.57;100.00
51229;BME280;37304;52.216;6.874;2023-03-16T06:09:55;101316.81;;;2.56;100.00
51229;BME280;37304;52.216;6.874;2023-03-16T06:14:55;101316.81;;;2.56;100.00
51229;BME280;37304;52.216;6.874;2023-03-16T06:19:56;101322.94;;;2.63;100.00
51229;BME280;37304;52.216;6.874;2023-03-16T06:24:58;101330.81;;;2.69;100.00
51229;BME280;37304;52.216;6.874;2023-03-16T06:29:59;101331.88;;;2.78;100.00
51229;BME280;37304;52.216;6.874;2023-03-16T06:34:59;101330.34;;;2.87;100.00
51229;BME280;37304;52.216;6.874;2023-03-16T06:40:01;101323.75;;;2.97;100.00
51229;BME280;37304;52.216;6.874;2023-03-16T06:45:02;101319.75;;;3.10;100.00
51229;BME280;37304;52.216;6.874;2023-03-16T06:50:03;101313.94;;;3.19;100.00
51229;BME280;37304;52.216;6.874;2023-03-16T06:55:04;101297.03;;;3.29;100.00
51229;BME280;37304;52.216;6.874;2023-03-16T07:00:05;101294.59;;;3.35;100.00
51229;BME280;37304;52.216;6.874;2023-03-16T07:05:07;101291.28;;;3.42;100.00
51229;BME280;37304;52.216;6.874;2023-03-16T07:10:14;101298.28;;;3.49;100.00
51229;BME280;37304;52.216;6.874;2023-03-16T07:15:16;101309.56;;;3.56;100.00
51229;BME280;37304;52.216;6.874;2023-03-16T07:20:17;101309.00;;;3.71;100.00
51229;BME280;37304;52.216;6.874;2023-03-16T07:25:18;101308.41;;;3.85;100.00
51229;BME280;37304;52.216;6.874;2023-03-16T07:30:18;101316.94;;;3.84;100.00
51229;BME280;37304;52.216;6.874;2023-03-16T07:35:18;101319.75;;;3.96;100.00
51229;BME280;37304;52.216;6.874;2023-03-16T07:40:19;101313.84;;;4.02;100.00
51229;BME280;37304;52.216;6.874;2023-03-16T07:45:19;101306.25;;;4.10;100.00
51229;BME280;37304;52.216;6.874;2023-03-16T07:50:20;101311.84;;;4.34;100.00
51229;BME280;37304;52.216;6.874;2023-03-16T07:55:21;101309.53;;;4.51;100.00
51229;BME280;37304;52.216;6.874;2023-03-16T08:00:22;101315.88;;;4.72;100.00
51229;BME280;37304;52.216;6.874;2023-03-16T08:05:23;101312.13;;;5.10;100.00
51229;BME280;37304;52.216;6.874;2023-03-16T08:10:24;101315.81;;;5.31;100.00
51229;BME280;37304;52.216;6.874;2023-03-16T08:15:24;101309.00;;;5.34;100.00
51229;BME280;37304;52.216;6.874;2023-03-16T08:20:24;101314.81;;;5.19;100.00
51229;BME280;37304;52.216;6.874;2023-03-16T08:25:25;101319.31;;;5.36;100.00
51229;BME280;37304;52.216;6.874;2023-03-16T08:30:25;101322.63;;;5.27;100.00
51229;BME280;37304;52.216;6.874;2023-03-16T08:35:26;101325.34;;;5.36;100.00
51229;BME280;37304;52.216;6.874;2023-03-16T08:40:28;101326.47;;;5.62;100.00
51229;BME280;37304;52.216;6.874;2023-03-16T08:45:28;101327.41;;;5.64;100.00
51229;BME280;37304;52.216;6.874;2023-03-16T08:50:28;101324.88;;;5.70;100.00
51229;BME280;37304;52.216;6.874;2023-03-16T08:55:29;101334.31;;;5.68;100.00
51229;BME280;37304;52.216;6.874;2023-03-16T09:00:29;101326.41;;;5.56;100.00
51229;BME280;37304;52.216;6.874;2023-03-16T09:05:30;101329.13;;;5.65;100.00
51229;BME280;37304;52.216;6.874;2023-03-16T09:10:40;101329.06;;;5.62;100.00
51229;BME280;37304;52.216;6.874;2023-03-16T09:15:41;101327.44;;;5.67;100.00
51229;BME280;37304;52.216;6.874;2023-03-16T09:20:42;101336.00;;;5.66;100.00
51229;BME280;37304;52.216;6.874;2023-03-16T09:25:42;101342.66;;;5.48;100.00
51229;BME280;37304;52.216;6.874;2023-03-16T09:30:43;101337.38;;;5.37;100.00
51229;BME280;37304;52.216;6.874;2023-03-16T09:35:43;101325.28;;;5.32;100.00
51229;BME280;37304;52.216;6.874;2023-03-16T09:40:46;101321.84;;;5.31;100.00
51229;BME280;37304;52.216;6.874;2023-03-16T09:51:07;101307.34;;;5.41;100.00
51229;BME280;37304;52.216;6.874;2023-03-16T09:56:20;101312.78;;;5.64;100.00
51229;BME280;37304;52.216;6.874;2023-03-16T10:06:25;101314.66;;;5.79;100.00
51229;BME280;37304;52.216;6.874;2023-03-16T10:11:28;101305.28;;;5.88;100.00
51229;BME280;37304;52.216;6.874;2023-03-16T10:16:35;101290.69;;;5.91;100.00
51229;BME280;37304;52.216;6.874;2023-03-16T10:21:39;101287.50;;;6.11;100.00
51229;BME280;37304;52.216;6.874;2023-03-16T10:26:41;101275.50;;;6.16;100.00
51229;BME280;37304;52.216;6.874;2023-03-16T10:31:46;101284.16;;;6.26;100.00
51229;BME280;37304;52.216;6.874;2023-03-16T10:36:47;101279.03;;;6.28;100.00
51229;BME280;37304;52.216;6.874;2023-03-16T10:41:56;101276.50;;;6.35;100.00
51229;BME280;37304;52.216;6.874;2023-03-16T10:47:23;101255.91;;;6.41;100.00
51229;BME280;37304;52.216;6.874;2023-03-16T10:52:37;101251.59;;;6.45;100.00
51229;BME280;37304;52.216;6.874;2023-03-16T10:57:46;101240.38;;;6.35;100.00
51229;BME280;37304;52.216;6.874;2023-03-16T11:02:48;101231.78;;;6.39;100.00
51229;BME280;37304;52.216;6.874;2023-03-16T11:13:10;101238.78;;;6.61;100.00
51229;BME280;37304;52.216;6.874;2023-03-16T11:18:22;101242.31;;;6.70;100.00
51229;BME280;37304;52.216;6.874;2023-03-16T11:23:33;101233.75;;;6.76;100.00
51229;BME280;37304;52.216;6.874;2023-03-16T11:28:38;101219.09;;;6.80;100.00
51229;BME280;37304;52.216;6.874;2023-03-16T11:33:40;101227.84;;;7.01;100.00
51229;BME280;37304;52.216;6.874;2023-03-16T11:38:51;101211.47;;;7.02;100.00
51229;BME280;37304;52.216;6.874;2023-03-16T11:43:56;101183.94;;;7.19;100.00
51229;BME280;37304;52.216;6.874;2023-03-16T11:54:50;101177.16;;;7.68;100.00
51229;BME280;37304;52.216;6.874;2023-03-16T12:00:19;101171.97;;;8.10;100.00
51229;BME280;37304;52.216;6.874;2023-03-16T12:15:54;101143.94;;;9.25;100.00
51229;BME280;37304;52.216;6.874;2023-03-16T12:21:01;101131.19;;;8.89;100.00
51229;BME280;37304;52.216;6.874;2023-03-16T12:26:03;101118.78;;;9.38;100.00
51229;BME280;37304;52.216;6.874;2023-03-16T12:46:30;101073.38;;;8.73;100.00
51229;BME280;37304;52.216;6.874;2023-03-16T12:51:41;101073.31;;;8.87;100.00
51229;BME280;37304;52.216;6.874;2023-03-16T12:56:46;101066.47;;;8.72;100.00
51229;BME280;37304;52.216;6.874;2023-03-16T13:01:55;101067.31;;;8.79;100.00
51229;BME280;37304;52.216;6.874;2023-03-16T13:07:04;101053.59;;;8.57;100.00
51229;BME280;37304;52.216;6.874;2023-03-16T13:12:07;101053.53;;;8.71;100.00
51229;BME280;37304;52.216;6.874;2023-03-16T13:32:23;101018.13;;;11.62;99.13
51229;BME280;37304;52.216;6.874;2023-03-16T13:37:27;101009.38;;;11.67;97.57
51229;BME280;37304;52.216;6.874;2023-03-16T13:42:29;101003.53;;;11.52;97.79
51229;BME280;37304;52.216;6.874;2023-03-16T13:47:32;101005.22;;;11.04;95.98
51229;BME280;37304;52.216;6.874;2023-03-16T13:52:33;100997.47;;;11.01;95.56
51229;BME280;37304;52.216;6.874;2023-03-16T13:57:36;100993.00;;;11.10;96.38
51229;BME280;37304;52.216;6.874;2023-03-16T14:02:41;100972.81;;;10.69;95.13
51229;BME280;37304;52.216;6.874;2023-03-16T14:07:45;100951.28;;;10.62;96.40
51229;BME280;37304;52.216;6.874;2023-03-16T14:12:53;100938.38;;;10.55;96.19
51229;BME280;37304;52.216;6.874;2023-03-16T14:18:07;100919.06;;;10.71;95.28
51229;BME280;37304;52.216;6.874;2023-03-16T14:23:17;100904.56;;;10.56;94.65
51229;BME280;37304;52.216;6.874;2023-03-16T14:28:21;100909.84;;;10.52;94.97
51229;BME280;37304;52.216;6.874;2023-03-16T14:33:34;100899.97;;;10.74;93.39
51229;BME280;37304;52.216;6.874;2023-03-16T14:38:36;100888.16;;;11.06;91.65
51229;BME280;37304;52.216;6.874;2023-03-16T14:43:43;100883.19;;;10.93;89.74
51229;BME280;37304;52.216;6.874;2023-03-16T14:48:44;100883.94;;;10.47;87.92
51229;BME280;37304;52.216;6.874;2023-03-16T14:53:44;100891.47;;;10.64;89.18
51229;BME280;37304;52.216;6.874;2023-03-16T14:58:45;100884.59;;;10.60;88.97
51229;BME280;37304;52.216;6.874;2023-03-16T15:03:45;100868.06;;;10.64;89.45
51229;BME280;37304;52.216;6.874;2023-03-16T15:08:46;100863.91;;;10.54;89.76
51229;BME280;37304;52.216;6.874;2023-03-16T15:13:49;100856.84;;;10.63;91.00
51229;BME280;37304;52.216;6.874;2023-03-16T15:18:50;100851.91;;;10.46;89.95
51229;BME280;37304;52.216;6.874;2023-03-16T15:23:51;100852.66;;;10.53;90.62
51229;BME280;37304;52.216;6.874;2023-03-16T15:28:52;100846.50;;;10.59;91.34
51229;BME280;37304;52.216;6.874;2023-03-16T15:33:52;100835.28;;;10.57;91.20
51229;BME280;37304;52.216;6.874;2023-03-16T15:38:53;100836.06;;;10.62;91.51
51229;BME280;37304;52.216;6.874;2023-03-16T15:43:54;100829.81;;;10.74;93.37
51229;BME280;37304;52.216;6.874;2023-03-16T15:48:59;100828.31;;;10.60;92.13
51229;BME280;37304;52.216;6.874;2023-03-16T15:54:02;100815.38;;;10.56;91.19
51229;BME280;37304;52.216;6.874;2023-03-16T15:59:05;100808.50;;;10.52;90.87
51229;BME280;37304;52.216;6.874;2023-03-16T16:04:12;100803.38;;;10.48;90.31
51229;BME280;37304;52.216;6.874;2023-03-16T16:09:14;100790.50;;;10.42;91.78
51229;BME280;37304;52.216;6.874;2023-03-16T16:14:24;100785.31;;;10.38;93.70
51229;BME280;37304;52.216;6.874;2023-03-16T16:19:25;100791.56;;;10.27;93.56
51229;BME280;37304;52.216;6.874;2023-03-16T16:24:26;100795.03;;;10.25;94.51
51229;BME280;37304;52.216;6.874;2023-03-16T16:29:30;100790.88;;;10.16;95.92
51229;BME280;37304;52.216;6.874;2023-03-16T16:34:34;100791.03;;;10.07;95.55
51229;BME280;37304;52.216;6.874;2023-03-16T16:39:36;100798.97;;;9.96;97.18
51229;BME280;37304;52.216;6.874;2023-03-16T16:44:36;100793.91;;;9.86;98.22
51229;BME280;37304;52.216;6.874;2023-03-16T16:49:36;100785.44;;;9.75;99.79
51229;BME280;37304;52.216;6.874;2023-03-16T16:54:37;100778.66;;;9.65;100.00
51229;BME280;37304;52.216;6.874;2023-03-16T16:59:38;100768.41;;;9.54;100.00
51229;BME280;37304;52.216;6.874;2023-03-16T17:04:38;100771.13;;;9.44;100.00
51229;BME280;37304;52.216;6.874;2023-03-16T17:09:38;100779.88;;;9.37;100.00
51229;BME280;37304;52.216;6.874;2023-03-16T17:14:39;100776.53;;;9.29;100.00
51229;BME280;37304;52.216;6.874;2023-03-16T17:19:39;100786.97;;;9.21;100.00
51229;BME280;37304;52.216;6.874;2023-03-16T17:24:39;100780.22;;;9.08;100.00
51229;BME280;37304;52.216;6.874;2023-03-16T17:29:40;100784.69;;;8.95;100.00
51229;BME280;37304;52.216;6.874;2023-03-16T17:34:41;100785.66;;;8.84;100.00
51229;BME280;37304;52.216;6.874;2023-03-16T17:39:42;100789.19;;;8.76;100.00
51229;BME280;37304;52.216;6.874;2023-03-16T17:44:48;100792.75;;;8.67;100.00
51229;BME280;37304;52.216;6.874;2023-03-16T17:49:50;100784.09;;;8.66;100.00
51229;BME280;37304;52.216;6.874;2023-03-16T17:54:51;100793.69;;;8.58;100.00
51229;BME280;37304;52.216;6.874;2023-03-16T17:59:53;100793.72;;;8.55;100.00
51229;BME280;37304;52.216;6.874;2023-03-16T18:04:53;100790.31;;;8.50;100.00
51229;BME280;37304;52.216;6.874;2023-03-16T18:09:53;100789.47;;;8.43;100.00
51229;BME280;37304;52.216;6.874;2023-03-16T18:14:54;100786.91;;;8.41;100.00
51229;BME280;37304;52.216;6.874;2023-03-16T18:19:58;100786.06;;;8.35;100.00
51229;BME280;37304;52.216;6.874;2023-03-16T18:24:58;100774.97;;;8.20;100.00
51229;BME280;37304;52.216;6.874;2023-03-16T18:30:01;100775.84;;;8.19;100.00
51229;BME280;37304;52.216;6.874;2023-03-16T18:35:01;100781.06;;;8.11;100.00
51229;BME280;37304;52.216;6.874;2023-03-16T18:40:02;100776.78;;;8.07;100.00
51229;BME280;37304;52.216;6.874;2023-03-16T18:45:03;100766.50;;;7.98;100.00
51229;BME280;37304;52.216;6.874;2023-03-16T18:50:04;100772.56;;;7.92;100.00
51229;BME280;37304;52.216;6.874;2023-03-16T18:55:14;100770.84;;;7.96;100.00
51229;BME280;37304;52.216;6.874;2023-03-16T19:00:17;100770.84;;;7.96;100.00
51229;BME280;37304;52.216;6.874;2023-03-16T19:05:21;100753.63;;;7.89;100.00
51229;BME280;37304;52.216;6.874;2023-03-16T19:10:30;100758.00;;;7.83;100.00
51229;BME280;37304;52.216;6.874;2023-03-16T19:15:32;100764.06;;;7.75;100.00
51229;BME280;37304;52.216;6.874;2023-03-16T19:20:36;100754.63;;;7.72;100.00
51229;BME280;37304;52.216;6.874;2023-03-16T19:25:37;100758.91;;;7.75;100.00
51229;BME280;37304;52.216;6.874;2023-03-16T19:30:39;100763.19;;;7.76;100.00
51229;BME280;37304;52.216;6.874;2023-03-16T19:35:40;100761.50;;;7.71;100.00
51229;BME280;37304;52.216;6.874;2023-03-16T19:40:41;100765.84;;;7.71;100.00
51229;BME280;37304;52.216;6.874;2023-03-16T19:45:42;100750.34;;;7.62;100.00
51229;BME280;37304;52.216;6.874;2023-03-16T19:50:42;100736.56;;;7.61;100.00
51229;BME280;37304;52.216;6.874;2023-03-16T19:55:45;100727.94;;;7.57;100.00
51229;BME280;37304;52.216;6.874;2023-03-16T20:00:46;100721.09;;;7.55;100.00
51229;BME280;37304;52.216;6.874;2023-03-16T20:05:47;100723.69;;;7.52;100.00
51229;BME280;37304;52.216;6.874;2023-03-16T20:10:48;100712.56;;;7.40;100.00
51229;BME280;37304;52.216;6.874;2023-03-16T20:15:49;100706.50;;;7.40;100.00
51229;BME280;37304;52.216;6.874;2023-03-16T20:20:49;100700.41;;;7.52;100.00
51229;BME280;37304;52.216;6.874;2023-03-16T20:25:52;100696.97;;;7.53;100.00
51229;BME280;37304;52.216;6.874;2023-03-16T20:30:53;100694.34;;;7.54;100.00
51229;BME280;37304;52.216;6.874;2023-03-16T20:35:54;100695.22;;;7.53;100.00
51229;BME280;37304;52.216;6.874;2023-03-16T20:40:55;100671.97;;;7.55;100.00
51229;BME280;37304;52.216;6.874;2023-03-16T20:45:59;100681.44;;;7.51;100.00
51229;BME280;37304;52.216;6.874;2023-03-16T20:51:00;100678.88;;;7.50;100.00
51229;BME280;37304;52.216;6.874;2023-03-16T20:56:01;100685.78;;;7.51;100.00
51229;BME280;37304;52.216;6.874;2023-03-16T21:01:02;100676.28;;;7.53;100.00
51229;BME280;37304;52.216;6.874;2023-03-16T21:06:05;100659.91;;;7.51;100.00
51229;BME280;37304;52.216;6.874;2023-03-16T21:11:19;100659.03;;;7.52;100.00
51229;BME280;37304;52.216;6.874;2023-03-16T21:16:20;100660.75;;;7.54;100.00
51229;BME280;37304;52.216;6.874;2023-03-16T21:21:21;100644.34;;;7.55;100.00
51229;BME280;37304;52.216;6.874;2023-03-16T21:26:23;100622.75;;;7.60;100.00
51229;BME280;37304;52.216;6.874;2023-03-16T21:31:26;100621.91;;;7.64;100.00
51229;BME280;37304;52.216;6.874;2023-03-16T21:36:26;100621.91;;;7.62;100.00
51229;BME280;37304;52.216;6.874;2023-03-16T21:41:27;100627.88;;;7.67;100.00
51229;BME280;37304;52.216;6.874;2023-03-16T21:46:28;100620.19;;;7.60;100.00
51229;BME280;37304;52.216;6.874;2023-03-16T21:51:29;100623.66;;;7.57;100.00
51229;BME280;37304;52.216;6.874;2023-03-16T21:56:30;100614.22;;;7.53;100.00
51229;BME280;37304;52.216;6.874;2023-03-16T22:01:32;100597.00;;;7.47;100.00
51229;BME280;37304;52.216;6.874;2023-03-16T22:06:34;100595.31;;;7.45;100.00
51229;BME280;37304;52.216;6.874;2023-03-16T22:11:35;100599.69;;;7.35;100.00
51229;BME280;37304;52.216;6.874;2023-03-16T22:16:35;100607.50;;;7.28;100.00
51229;BME280;37304;52.216;6.874;2023-03-16T22:21:39;100598.03;;;7.23;100.00
51229;BME280;37304;52.216;6.874;2023-03-16T22:26:41;100593.81;;;7.12;100.00
51229;BME280;37304;52.216;6.874;2023-03-16T22:31:41;100591.22;;;7.14;100.00
51229;BME280;37304;52.216;6.874;2023-03-16T22:36:42;100587.84;;;7.06;100.00
51229;BME280;37304;52.216;6.874;2023-03-16T22:41:43;100611.16;;;6.96;100.00
51229;BME280;37304;52.216;6.874;2023-03-16T22:46:43;100593.97;;;6.83;100.00
51229;BME280;37304;52.216;6.874;2023-03-16T22:51:44;100605.16;;;6.87;100.00
51229;BME280;37304;52.216;6.874;2023-03-16T22:56:46;100599.19;;;6.78;100.00
51229;BME280;37304;52.216;6.874;2023-03-16T23:01:48;100588.84;;;6.74;100.00
51229;BME280;37304;52.216;6.874;2023-03-16T23:06:53;100577.69;;;6.73;100.00
51229;BME280;37304;52.216;6.874;2023-03-16T23:11:54;100573.38;;;6.72;100.00
51229;BME280;37304;52.216;6.874;2023-03-16T23:16:55;100563.03;;;6.70;100.00
51229;BME280;37304;52.216;6.874;2023-03-16T23:22:01;100582.88;;;6.62;100.00
51229;BME280;37304;52.216;6.874;2023-03-16T23:27:03;100578.59;;;6.56;100.00
51229;BME280;37304;52.216;6.874;2023-03-16T23:32:04;100574.28;;;6.62;100.00
51229;BME280;37304;52.216;6.874;2023-03-16T23:37:04;100577.72;;;6.61;100.00
51229;BME280;37304;52.216;6.874;2023-03-16T23:42:05;100567.41;;;6.59;100.00
51229;BME280;37304;52.216;6.874;2023-03-16T23:47:05;100567.44;;;6.53;100.00
51229;BME280;37304;52.216;6.874;2023-03-16T23:52:06;100566.56;;;6.55;100.00
51229;BME280;37304;52.216;6.874;2023-03-16T23:57:07;100563.09;;;6.64;100.00
